Classifiche di sempre
Migliori tempi personali validi di atleta tra tutti gli eventi e le stagioni. Ogni atleta compare una sola volta per divisione.
Cerca per nome e apri la pagina in cui è classificato questo record di divisione.
179,683 atleti in classifica
| Pos. | Pos. AG | Atleta | Nazionalità | Categoria età | TempoMiglior tempo | Distacco |
|---|---|---|---|---|---|---|
| 29226 | #8806 | Oli GilbertGBR · M 30-34 · AG #8806 | GBR | M 30-34 | 1:14:17 | +23:39 |
| 29227 | #493 | Lloyd FoxGBR · M 50-54 · AG #493 | GBR | M 50-54 | 1:14:17 | +23:39 |
| 29228 | #6319 | Darren SweeneyIRL · M 35-39 · AG #6319 | IRL | M 35-39 | 1:14:17 | +23:39 |
| 29229 | #3331 | Matthieu GilleFRA · M 40-44 · AG #3331 | FRA | M 40-44 | 1:14:17 | +23:39 |
| 29230 | #3428 | Jared FOOTEUSA · M 16-24 · AG #3428 | USA | M 16-24 | 1:14:17 | +23:39 |
| 29231 | #7468 | Andreas RottluffGER · M 25-29 · AG #7468 | GER | M 25-29 | 1:14:17 | +23:39 |
| 29232 | #3335 | Jan Oliver DsouzaDEN · M 40-44 · AG #3335 | DEN | M 40-44 | 1:14:17 | +23:39 |
| 29233 | #8801 | Agustín QuesadaESP · M 30-34 · AG #8801 | ESP | M 30-34 | 1:14:17 | +23:39 |
| 29234 | #3427 | Thomas DavisGBR · M 16-24 · AG #3427 | GBR | M 16-24 | 1:14:17 | +23:39 |
| 29235 | #7469 | Glenn BonitzGER · M 25-29 · AG #7469 | GER | M 25-29 | 1:14:17 | +23:39 |
| 29236 | #8808 | Matthew BaileyGBR · M 30-34 · AG #8808 | GBR | M 30-34 | 1:14:17 | +23:39 |
| 29237 | #1423 | Peter DruckUSA · M 45-49 · AG #1423 | USA | M 45-49 | 1:14:17 | +23:39 |
| 29238 | #3336 | Olly MillerGBR · M 40-44 · AG #3336 | GBR | M 40-44 | 1:14:17 | +23:39 |
| 29239 | #8810 | Jan Dennis ZerenGER · M 30-34 · AG #8810 | GER | M 30-34 | 1:14:17 | +23:39 |
| 29240 | #6316 | James WatsonGBR · M 35-39 · AG #6316 | GBR | M 35-39 | 1:14:17 | +23:39 |
| 29241 | #3425 | Matteo VanaliITA · M 16-24 · AG #3425 | ITA | M 16-24 | 1:14:17 | +23:39 |
| 29242 | #3337 | Tane HenryAUS · M 40-44 · AG #3337 | AUS | M 40-44 | 1:14:17 | +23:39 |
| 29243 | #8811 | Tadas SpundzeviciusLTU · M 30-34 · AG #8811 | LTU | M 30-34 | 1:14:17 | +23:39 |
| 29244 | #7470 | Stef EkkelkampNED · M 25-29 · AG #7470 | NED | M 25-29 | 1:14:17 | +23:39 |
| 29245 | #494 | Mark RadcliffeGBR · M 50-54 · AG #494 | GBR | M 50-54 | 1:14:17 | +23:39 |
| 29246 | #8809 | Jack SalmonGBR · M 30-34 · AG #8809 | GBR | M 30-34 | 1:14:17 | +23:39 |
| 29247 | #6324 | Steffan PhillipsGBR · M 35-39 · AG #6324 | GBR | M 35-39 | 1:14:17 | +23:39 |
| 29248 | #6320 | Charlie McNicholasGBR · M 35-39 · AG #6320 | GBR | M 35-39 | 1:14:17 | +23:39 |
| 29249 | #8813 | Diego Albertico Bautista QuevedoMEX · M 30-34 · AG #8813 | MEX | M 30-34 | 1:14:18 | +23:40 |
| 29250 | #6325 | Pedro PagliosaUSA · M 35-39 · AG #6325 | USA | M 35-39 | 1:14:18 | +23:40 |
Pagina 1,170 di 7,188